| time (UTC) | temp F | wind direction | speed knots | gust knots | rain 1hr in | rain 24hr in | rain mn in | humidity % | barometer mb |
| 20260906044003 | 71 | 320 | 0.0 | 0.0 | 0.00 | 0.28 | 0.00 | 97 | 1013.8 |
| 20260906043007 | 71 | 320 | 0.0 | 0.0 | 0.00 | 0.28 | 0.00 | 97 | 1013.8 |
| 20260906042504 | 71 | 320 | 0.0 | 0.0 | 0.00 | 0.28 | 0.00 | 97 | 1013.8 |
| 20260906042003 | 71 | 320 | 0.0 | 0.0 | 0.00 | 0.28 | 0.00 | 97 | 1014.2 |
| 20260906041005 | 72 | 320 | 0.0 | 0.0 | 0.00 | 0.28 | 0.00 | 97 | 1014.2 |
| 20260906040504 | 72 | 320 | 0.0 | 0.0 | 0.00 | 0.28 | 0.00 | 97 | 1014.2 |
| 20260906035505 | 72 | 320 | 0.0 | 0.0 | 0.00 | 0.28 | 0.28 | 97 | 1014.2 |
| 20260906034526 | 72 | 320 | 0.0 | 0.9 | 0.00 | 0.28 | 0.28 | 97 | 1014.2 |
| 20260906033508 | 72 | 320 | 0.0 | 0.0 | 0.00 | 0.28 | 0.28 | 97 | 1014.5 |
| 20260906032526 | 72 | 320 | 0.0 | 0.0 | 0.00 | 0.28 | 0.28 | 97 | 1014.2 |
| 20260906032005 | 72 | 320 | 0.0 | 0.0 | 0.00 | 0.28 | 0.28 | 96 | 1014.2 |
| 20260906031026 | 72 | 320 | 0.0 | 0.0 | 0.00 | 0.28 | 0.28 | 96 | 1014.5 |
| 20260906030505 | 72 | 320 | 0.0 | 0.9 | 0.00 | 0.28 | 0.28 | 96 | 1014.5 |
| 20260906025524 | 72 | 320 | 0.0 | 0.0 | 0.00 | 0.28 | 0.28 | 96 | 1014.5 |
| 20260906024505 | 72 | 320 | 0.0 | 0.0 | 0.00 | 0.28 | 0.28 | 97 | 1014.2 |
| 20260906023508 | 72 | 320 | 0.9 | 0.9 | 0.00 | 0.28 | 0.28 | 97 | 1014.2 |
| 20260906022527 | 72 | 320 | 0.0 | 0.0 | 0.00 | 0.28 | 0.28 | 96 | 1014.2 |
| 20260906021504 | 73 | 320 | 0.0 | 0.0 | 0.00 | 0.28 | 0.28 | 96 | 1013.8 |
| 20260906020525 | 73 | 320 | 0.0 | 0.0 | 0.00 | 0.28 | 0.28 | 96 | 1013.5 |
| 20260906015507 | 73 | 320 | 0.0 | 0.0 | 0.00 | 0.28 | 0.28 | 96 | 1013.5 |
| 20260906015005 | 73 | 320 | 0.0 | 0.0 | 0.00 | 0.28 | 0.28 | 96 | 1013.8 |
| 20260906014503 | 73 | 320 | 0.0 | 0.0 | 0.00 | 0.28 | 0.28 | 96 | 1013.8 |
| 20260906013548 | 73 | 320 | 0.0 | 0.0 | 0.00 | 0.28 | 0.28 | 96 | 1013.5 |
| 20260906012511 | 73 | 320 | 0.0 | 0.0 | 0.00 | 0.28 | 0.28 | 96 | 1013.5 |
| 20260906012007 | 73 | 320 | 0.0 | 0.0 | 0.00 | 0.28 | 0.28 | 96 | 1013.5 |
| 20260906011505 | 73 | 320 | 0.0 | 0.0 | 0.00 | 0.28 | 0.28 | 96 | 1013.5 |
| 20260906010508 | 74 | 320 | 0.9 | 0.9 | 0.00 | 0.28 | 0.28 | 96 | 1013.5 |
| 20260906010003 | 74 | 320 | 0.0 | 0.9 | 0.00 | 0.28 | 0.28 | 96 | 1013.5 |
| 20260906005003 | 74 | 320 | 0.0 | 0.0 | 0.00 | 0.28 | 0.28 | 96 | 1013.5 |
| 20260906004007 | 74 | 320 | 0.0 | 0.9 | 0.00 | 0.28 | 0.28 | 95 | 1013.5 |
| 20260906003507 | 74 | 320 | 0.0 | 0.0 | 0.00 | 0.28 | 0.28 | 95 | 1013.1 |
| 20260906003006 | 74 | 320 | 0.0 | 0.0 | 0.00 | 0.28 | 0.28 | 95 | 1013.1 |
| 20260906002026 | 75 | 320 | 0.0 | 0.0 | 0.00 | 0.28 | 0.28 | 95 | 1013.1 |
| 20260906001011 | 75 | 320 | 0.0 | 0.0 | 0.00 | 0.28 | 0.28 | 95 | 1012.8 |
| 20260906000007 | 75 | 320 | 0.0 | 0.0 | 0.00 | 0.28 | 0.28 | 94 | 1013.1 |
| 20260905235013 | 75 | 320 | 0.9 | 0.9 | 0.00 | 0.28 | 0.28 | 94 | 1012.8 |
| 20260905234008 | 76 | 320 | 1.7 | 1.7 | 0.00 | 0.28 | 0.28 | 94 | 1012.8 |
| 20260905233006 | 76 | 320 | 0.0 | 0.0 | 0.00 | 0.28 | 0.28 | 93 | 1012.8 |
| 20260905232006 | 76 | 320 | 0.0 | 0.9 | 0.00 | 0.28 | 0.28 | 93 | 1012.4 |
| 20260905231008 | 77 | 320 | 0.9 | 1.7 | 0.00 | 0.28 | 0.28 | 91 | 1012.8 |
| 20260905230005 | 78 | 320 | 0.0 | 0.0 | 0.00 | 0.28 | 0.28 | 89 | 1012.4 |
| 20260905225505 | 80 | 320 | 0.0 | 0.9 | 0.00 | 0.28 | 0.28 | 86 | 1012.4 |
| 20260905224006 | 79 | 296 | 0.0 | 0.9 | 0.00 | 0.28 | 0.28 | 84 | 1012.4 |
| 20260905223506 | 79 | 296 | 0.9 | 1.7 | 0.00 | 0.28 | 0.28 | 84 | 1012.4 |
| 20260905222507 | 79 | 278 | 0.0 | 0.9 | 0.00 | 0.28 | 0.28 | 84 | 1012.1 |
| 20260905222004 | 79 | 277 | 0.0 | 0.0 | 0.00 | 0.28 | 0.28 | 82 | 1012.4 |
| 20260905221027 | 78 | 277 | 0.0 | 0.9 | 0.00 | 0.28 | 0.28 | 92 | 1012.8 |
| 20260905220008 | 78 | 278 | 0.0 | 0.9 | 0.00 | 0.28 | 0.28 | 89 | 1012.4 |
| 20260905215506 | 78 | 274 | 0.0 | 0.9 | 0.00 | 0.28 | 0.28 | 83 | 1012.4 |
| 20260905214507 | 77 | 295 | 1.7 | 2.6 | 0.00 | 0.28 | 0.28 | 86 | 1012.4 |
| 20260905213508 | 76 | 275 | 0.9 | 0.9 | 0.00 | 0.28 | 0.28 | 88 | 1012.8 |
| 20260905212508 | 76 | 279 | 0.9 | 1.7 | 0.00 | 0.28 | 0.28 | 87 | 1013.1 |
| 20260905212006 | 76 | 290 | 0.9 | 0.9 | 0.00 | 0.28 | 0.28 | 88 | 1013.1 |
| 20260905211008 | 75 | 218 | 0.9 | 1.7 | 0.00 | 0.28 | 0.28 | 87 | 1013.1 |
| 20260905210506 | 75 | 182 | 0.9 | 1.7 | 0.00 | 0.28 | 0.28 | 89 | 1013.1 |
| 20260905210005 | 74 | 242 | 1.7 | 1.7 | 0.00 | 0.28 | 0.28 | 91 | 1013.1 |
| 20260905205012 | 74 | 277 | 1.7 | 4.3 | 0.00 | 0.28 | 0.28 | 94 | 1013.8 |
| 20260905204506 | 73 | 287 | 1.7 | 2.6 | 0.00 | 0.28 | 0.28 | 94 | 1013.8 |
| 20260905204005 | 72 | 300 | 0.9 | 0.9 | 0.00 | 0.28 | 0.28 | 94 | 1013.5 |
| 20260905203009 | 72 | 347 | 0.9 | 1.7 | 0.00 | 0.28 | 0.28 | 94 | 1014.2 |
| 20260905202024 | 72 | 99 | 1.7 | 2.6 | 0.00 | 0.28 | 0.28 | 95 | 1014.2 |
| 20260905201033 | 72 | 132 | 1.7 | 2.6 | 0.02 | 0.28 | 0.28 | 94 | 1013.8 |
| 20260905200506 | 72 | 33 | 0.0 | 0.9 | 0.15 | 0.28 | 0.28 | 95 | 1013.8 |
| 20260905195523 | 72 | 31 | 0.0 | 0.9 | 0.28 | 0.28 | 0.28 | 94 | 1013.5 |
| 20260905194508 | 72 | 31 | 0.9 | 1.7 | 0.28 | 0.28 | 0.28 | 95 | 1013.5 |
| 20260905194007 | 71 | 32 | 0.0 | 0.0 | 0.28 | 0.28 | 0.28 | 94 | 1013.5 |
| 20260905193507 | 72 | 32 | 0.9 | 0.9 | 0.28 | 0.28 | 0.28 | 94 | 1013.8 |
| 20260905192509 | 72 | 31 | 1.7 | 1.7 | 0.28 | 0.28 | 0.28 | 92 | 1014.2 |
| 20260905192007 | 72 | 19 | 1.7 | 2.6 | 0.28 | 0.28 | 0.28 | 92 | 1014.2 |
| 20260905191007 | 73 | 137 | 2.6 | 2.6 | 0.25 | 0.25 | 0.25 | 86 | 1014.2 |
| 20260905190503 | 77 | 268 | 5.2 | 8.7 | 0.12 | 0.12 | 0.12 | 77 | 1015.6 |
| 20260905185529 | 84 | 4 | 10.4 | 13.0 | 0.00 | 0.00 | 0.00 | 60 | 1014.5 |
| 20260905185006 | 86 | 356 | 6.1 | 11.3 | 0.00 | 0.00 | 0.00 | 56 | 1014.2 |
| 20260905184010 | 92 | 345 | 4.3 | 5.2 | 0.00 | 0.00 | 0.00 | 50 | 1013.5 |
| 20260905183507 | 93 | 24 | 0.9 | 1.7 | 0.00 | 0.00 | 0.00 | 53 | 1013.1 |
| 20260905183007 | 93 | 24 | 1.7 | 1.7 | 0.00 | 0.00 | 0.00 | 58 | 1013.1 |
| 20260905182006 | 94 | 29 | 0.9 | 1.7 | 0.00 | 0.00 | 0.00 | 58 | 1012.4 |
| 20260905181005 | 93 | 248 | 1.7 | 1.7 | 0.00 | 0.00 | 0.00 | 54 | 1013.1 |
| 20260905180503 | 93 | 248 | 0.0 | 0.0 | 0.00 | 0.00 | 0.00 | 60 | 1013.1 |
| 20260905175528 | 95 | 282 | 1.7 | 2.6 | 0.00 | 0.00 | 0.00 | 52 | 1013.8 |
| 20260905174512 | 95 | 17 | 0.9 | 0.9 | 0.00 | 0.00 | 0.00 | 54 | 1013.8 |
| 20260905174007 | 94 | 288 | 2.6 | 3.5 | 0.00 | 0.00 | 0.00 | 53 | 1014.2 |
| 20260905173007 | 96 | 228 | 0.9 | 0.9 | 0.00 | 0.00 | 0.00 | 55 | 1014.2 |
| 20260905172005 | 94 | 355 | 0.9 | 1.7 | 0.00 | 0.00 | 0.00 | 58 | 1014.2 |
| 20260905171009 | 94 | 35 | 1.7 | 2.6 | 0.00 | 0.00 | 0.00 | 56 | 1014.5 |
| 20260905170505 | 94 | 39 | 0.9 | 1.7 | 0.00 | 0.00 | 0.00 | 57 | 1014.5 |
| 20260905165510 | 94 | 339 | 1.7 | 2.6 | 0.00 | 0.00 | 0.00 | 57 | 1014.5 |
| 20260905164510 | 94 | 33 | 0.9 | 1.7 | 0.00 | 0.00 | 0.00 | 56 | 1014.9 |
| 20260905163511 | 93 | 270 | 0.9 | 1.7 | 0.00 | 0.00 | 0.00 | 60 | 1014.9 |
| 20260905162508 | 93 | 353 | 2.6 | 3.5 | 0.00 | 0.00 | 0.00 | 58 | 1014.9 |
| 20260905161511 | 92 | 13 | 0.9 | 1.7 | 0.00 | 0.00 | 0.00 | 61 | 1014.9 |
| 20260905161006 | 92 | 285 | 2.6 | 3.5 | 0.00 | 0.00 | 0.00 | 61 | 1015.2 |
| 20260905160012 | 91 | 331 | 0.9 | 1.7 | 0.00 | 0.00 | 0.00 | 63 | 1015.2 |
| 20260905155028 | 91 | 346 | 0.0 | 0.9 | 0.00 | 0.00 | 0.00 | 64 | 1015.2 |
| 20260905154504 | 90 | 344 | 0.0 | 0.9 | 0.00 | 0.00 | 0.00 | 67 | 1015.6 |
| 20260905154005 | 89 | 345 | 0.9 | 1.7 | 0.00 | 0.00 | 0.00 | 69 | 1015.2 |
| 20260905153026 | 89 | 283 | 0.0 | 0.9 | 0.00 | 0.00 | 0.00 | 71 | 1015.2 |
| 20260905152005 | 88 | 245 | 1.7 | 3.5 | 0.00 | 0.00 | 0.00 | 74 | 1015.2 |
| 20260905151504 | 88 | 255 | 0.9 | 0.9 | 0.00 | 0.00 | 0.00 | 73 | 1015.2 |
| 20260905150509 | 87 | 247 | 1.7 | 1.7 | 0.00 | 0.00 | 0.00 | 72 | 1015.6 |
| 20260905150008 | 86 | 329 | 0.0 | 0.9 | 0.00 | 0.00 | 0.00 | 72 | 1015.6 |
| 20260905145025 | 86 | 279 | 2.6 | 2.6 | 0.00 | 0.00 | 0.00 | 77 | 1015.6 |
| 20260905144008 | 84 | 262 | 2.6 | 3.5 | 0.00 | 0.00 | 0.00 | 79 | 1015.6 |
| 20260905143506 | 83 | 187 | 0.0 | 0.0 | 0.00 | 0.00 | 0.00 | 81 | 1015.6 |
| 20260905142507 | 83 | 187 | 0.0 | 0.0 | 0.00 | 0.00 | 0.00 | 83 | 1015.6 |
| 20260905141525 | 83 | 298 | 0.0 | 0.0 | 0.00 | 0.00 | 0.00 | 83 | 1015.6 |
| 20260905140527 | 82 | 262 | 0.0 | 0.0 | 0.00 | 0.00 | 0.00 | 85 | 1015.6 |
| 20260905140004 | 82 | 266 | 0.0 | 0.0 | 0.00 | 0.00 | 0.00 | 85 | 1015.6 |
| 20260905135007 | 80 | 260 | 0.0 | 0.0 | 0.00 | 0.00 | 0.00 | 87 | 1015.6 |
| 20260905134030 | 80 | 264 | 0.0 | 0.0 | 0.00 | 0.00 | 0.00 | 88 | 1015.6 |
| 20260905133007 | 80 | 264 | 0.0 | 0.0 | 0.00 | 0.00 | 0.00 | 88 | 1015.6 |
| 20260905132024 | 79 | 264 | 0.0 | 0.0 | 0.00 | 0.00 | 0.00 | 89 | 1015.6 |
| 20260905131029 | 78 | 241 | 0.0 | 0.0 | 0.00 | 0.00 | 0.00 | 91 | 1015.9 |
| 20260905130503 | 78 | 239 | 0.0 | 0.0 | 0.00 | 0.00 | 0.00 | 92 | 1015.9 |
| 20260905125507 | 77 | 239 | 0.0 | 0.0 | 0.00 | 0.00 | 0.00 | 93 | 1015.9 |
| 20260905124527 | 76 | 239 | 0.0 | 0.0 | 0.00 | 0.00 | 0.00 | 93 | 1015.9 |
| 20260905123507 | 75 | 239 | 0.0 | 0.0 | 0.00 | 0.00 | 0.00 | 94 | 1015.9 |
| 20260905123004 | 75 | 239 | 0.0 | 0.0 | 0.00 | 0.00 | 0.00 | 94 | 1015.6 |
| 20260905122023 | 75 | 239 | 0.0 | 0.0 | 0.00 | 0.00 | 0.00 | 95 | 1015.6 |
| 20260905121005 | 74 | 239 | 0.0 | 0.0 | 0.00 | 0.00 | 0.00 | 95 | 1015.6 |
| 20260905120502 | 74 | 239 | 0.0 | 0.0 | 0.00 | 0.00 | 0.00 | 95 | 1015.6 |
| 20260905115505 | 73 | 239 | 0.0 | 0.0 | 0.00 | 0.00 | 0.00 | 95 | 1015.2 |
| 20260905114522 | 73 | 239 | 0.0 | 0.0 | 0.00 | 0.00 | 0.00 | 95 | 1015.2 |
| 20260905113510 | 73 | 239 | 0.0 | 0.0 | 0.00 | 0.00 | 0.00 | 95 | 1015.6 |
| 20260905113007 | 73 | 239 | 0.0 | 0.0 | 0.00 | 0.00 | 0.00 | 96 | 1015.6 |
| 20260905112506 | 73 | 239 | 0.0 | 0.0 | 0.00 | 0.00 | 0.00 | 96 | 1015.2 |
| 20260905112004 | 73 | 239 | 0.0 | 0.0 | 0.00 | 0.00 | 0.00 | 96 | 1014.9 |
| 20260905111028 | 73 | 239 | 0.0 | 0.0 | 0.00 | 0.00 | 0.00 | 96 | 1014.9 |
| 20260905110503 | 73 | 239 | 0.0 | 0.0 | 0.00 | 0.00 | 0.00 | 96 | 1014.9 |
| 20260905105506 | 73 | 239 | 0.0 | 0.0 | 0.00 | 0.00 | 0.00 | 96 | 1014.5 |
| 20260905104509 | 73 | 239 | 0.0 | 0.0 | 0.00 | 0.00 | 0.00 | 95 | 1014.5 |
| 20260905103547 | 73 | 239 | 0.0 | 0.0 | 0.00 | 0.00 | 0.00 | 96 | 1014.2 |
| 20260905102504 | 73 | 239 | 0.0 | 0.0 | 0.00 | 0.00 | 0.00 | 95 | 1014.2 |
| 20260905102004 | 73 | 239 | 0.0 | 0.0 | 0.00 | 0.00 | 0.00 | 95 | 1014.2 |
| 20260905101006 | 73 | 239 | 0.0 | 0.0 | 0.00 | 0.00 | 0.00 | 95 | 1014.2 |
| 20260905100004 | 73 | 239 | 0.0 | 0.0 | 0.00 | 0.00 | 0.00 | 95 | 1014.2 |
| 20260905095011 | 73 | 239 | 0.0 | 0.0 | 0.00 | 0.00 | 0.00 | 95 | 1014.2 |
| 20260905094010 | 73 | 239 | 0.0 | 0.0 | 0.00 | 0.00 | 0.00 | 95 | 1014.2 |
| 20260905093006 | 73 | 239 | 0.0 | 0.0 | 0.00 | 0.00 | 0.00 | 95 | 1014.2 |
| 20260905092505 | 73 | 239 | 0.0 | 0.0 | 0.00 | 0.00 | 0.00 | 94 | 1014.5 |
| 20260905092003 | 73 | 239 | 0.0 | 0.0 | 0.00 | 0.00 | 0.00 | 94 | 1014.2 |
| 20260905091008 | 74 | 239 | 0.0 | 0.0 | 0.00 | 0.00 | 0.00 | 94 | 1014.2 |
| 20260905090504 | 74 | 239 | 0.0 | 0.0 | 0.00 | 0.00 | 0.00 | 94 | 1014.2 |
| 20260905090003 | 74 | 239 | 0.0 | 0.0 | 0.00 | 0.00 | 0.00 | 94 | 1014.2 |
| 20260905085008 | 74 | 239 | 0.0 | 0.0 | 0.00 | 0.00 | 0.00 | 93 | 1014.5 |
| 20260905084507 | 74 | 239 | 0.0 | 0.0 | 0.00 | 0.00 | 0.00 | 93 | 1014.5 |
| 20260905083528 | 74 | 239 | 0.0 | 0.0 | 0.00 | 0.00 | 0.00 | 93 | 1014.5 |
| 20260905083006 | 74 | 239 | 0.0 | 0.0 | 0.00 | 0.00 | 0.00 | 93 | 1014.5 |
| 20260905082005 | 74 | 239 | 0.0 | 0.0 | 0.00 | 0.00 | 0.00 | 93 | 1014.5 |
| 20260905081030 | 75 | 239 | 0.0 | 0.0 | 0.00 | 0.00 | 0.00 | 92 | 1014.9 |
| 20260905080010 | 75 | 239 | 0.0 | 0.0 | 0.00 | 0.00 | 0.00 | 92 | 1014.9 |
| 20260905075008 | 75 | 239 | 0.0 | 0.0 | 0.00 | 0.00 | 0.00 | 92 | 1014.9 |
| 20260905074046 | 75 | 239 | 0.0 | 0.0 | 0.00 | 0.00 | 0.00 | 92 | 1014.9 |
| 20260905073503 | 75 | 239 | 0.0 | 0.0 | 0.00 | 0.00 | 0.00 | 92 | 1014.9 |
| 20260905073003 | 75 | 239 | 0.0 | 0.0 | 0.00 | 0.00 | 0.00 | 91 | 1014.9 |
| 20260905072024 | 76 | 239 | 0.0 | 0.0 | 0.00 | 0.00 | 0.00 | 90 | 1014.9 |
| 20260905071007 | 76 | 239 | 0.0 | 0.0 | 0.00 | 0.00 | 0.00 | 90 | 1015.2 |
| 20260905070005 | 76 | 239 | 0.0 | 0.0 | 0.00 | 0.00 | 0.00 | 90 | 1015.2 |
| 20260905065006 | 76 | 239 | 0.0 | 0.0 | 0.00 | 0.00 | 0.00 | 89 | 1015.2 |
| 20260905064011 | 76 | 239 | 0.0 | 0.0 | 0.00 | 0.00 | 0.00 | 90 | 1015.2 |
| 20260905063504 | 76 | 239 | 0.0 | 0.0 | 0.00 | 0.00 | 0.00 | 90 | 1015.6 |
| 20260905063003 | 77 | 239 | 0.0 | 0.0 | 0.00 | 0.00 | 0.00 | 89 | 1015.6 |
| 20260905062006 | 76 | 239 | 0.0 | 0.0 | 0.00 | 0.00 | 0.00 | 89 | 1015.6 |
| 20260905061006 | 76 | 239 | 0.0 | 0.0 | 0.00 | 0.00 | 0.00 | 90 | 1015.9 |
| 20260905060049 | 77 | 239 | 0.0 | 0.0 | 0.00 | 0.00 | 0.00 | 90 | 1015.9 |
| 20260905055006 | 76 | 239 | 0.0 | 0.0 | 0.00 | 0.00 | 0.00 | 90 | 1015.9 |
| 20260905054003 | 76 | 239 | 0.0 | 0.0 | 0.00 | 0.00 | 0.00 | 90 | 1015.9 |
| 20260905053006 | 77 | 239 | 0.0 | 0.0 | 0.00 | 0.00 | 0.00 | 89 | 1015.9 |
| 20260905052506 | 77 | 239 | 0.0 | 0.0 | 0.00 | 0.00 | 0.00 | 89 | 1015.9 |
| 20260905051523 | 77 | 239 | 0.0 | 0.0 | 0.00 | 0.00 | 0.00 | 90 | 1015.9 |
| 20260905050510 | 77 | 239 | 0.0 | 0.0 | 0.00 | 0.00 | 0.00 | 89 | 1016.3 |
| 20260905050004 | 77 | 239 | 0.0 | 0.0 | 0.00 | 0.00 | 0.00 | 88 | 1015.9 |
| 20260905045005 | 77 | 239 | 0.0 | 0.0 | 0.00 | 0.00 | 0.00 | 88 | 1016.3 |